Time;durP1;ratioP1;P1;durP2;ratioP2;P2;SDS_P1;SDS_P2;PMS_P1;PMS_P2;Temp;Humidity;BMP_temperature;BMP_pressure;BME280_temperature;BME280_humidity;BME280_pressure;Samples;Min_cycle;Max_cycle;Signal;HPM_P1;HPM_P2
2021/08/19 00:00:21;;;;;;;19.08;7.38;;;;;;;;;;4995320;28;20053;-55
2021/08/19 00:02:48;;;;;;;16.60;6.60;;;;;;;;;;4992199;28;20110;-57
2021/08/19 00:05:14;;;;;;;13.85;5.90;;;;;;;;;;5004364;28;20049;-54
2021/08/19 00:07:41;;;;;;;17.02;6.75;;;;;;;;;;4994534;28;20057;-57
2021/08/19 00:10:10;;;;;;;16.15;6.88;;;;;;;;;;4998648;28;20061;-56
2021/08/19 00:12:36;;;;;;;14.00;6.57;;;;;;;;;;4997306;28;20034;-57
2021/08/19 00:15:04;;;;;;;14.30;6.47;;;;;;;;;;4997348;28;20057;-57
2021/08/19 00:17:31;;;;;;;15.27;6.20;;;;;;;;;;5001029;28;20112;-57
2021/08/19 00:20:00;;;;;;;14.27;6.35;;;;;;;;;;4995040;28;20049;-57
2021/08/19 00:22:26;;;;;;;16.73;5.70;;;;;;;;;;4999738;28;20048;-55
2021/08/19 00:24:52;;;;;;;15.05;6.50;;;;;;;;;;4998190;28;20048;-54
2021/08/19 00:27:19;;;;;;;13.10;6.03;;;;;;;;;;5018654;28;20372;-53
2021/08/19 00:29:46;;;;;;;14.77;5.57;;;;;;;;;;4995285;28;20041;-56
2021/08/19 00:32:14;;;;;;;13.52;6.22;;;;;;;;;;5017115;28;20117;-57
2021/08/19 00:34:41;;;;;;;13.07;5.95;;;;;;;;;;4996162;28;20041;-56
2021/08/19 00:37:08;;;;;;;12.32;5.85;;;;;;;;;;5016472;28;20057;-56
2021/08/19 00:39:35;;;;;;;15.20;5.75;;;;;;;;;;4996795;28;20052;-54
2021/08/19 00:42:01;;;;;;;13.68;5.72;;;;;;;;;;4999685;28;20057;-57
2021/08/19 00:44:28;;;;;;;14.40;6.68;;;;;;;;;;4996337;28;20049;-54
2021/08/19 00:46:54;;;;;;;13.20;5.93;;;;;;;;;;5016288;28;20049;-54
2021/08/19 00:49:22;;;;;;;12.07;5.65;;;;;;;;;;4994531;28;20056;-54
2021/08/19 00:51:49;;;;;;;13.60;5.73;;;;;;;;;;5000368;28;20049;-57
2021/08/19 00:54:17;;;;;;;13.98;5.97;;;;;;;;;;4996003;28;20279;-56
2021/08/19 00:56:44;;;;;;;12.07;5.88;;;;;;;;;;4998147;28;20115;-57
2021/08/19 00:59:11;;;;;;;13.05;6.20;;;;;;;;;;5000650;28;20049;-57
2021/08/19 01:01:38;;;;;;;12.85;6.15;;;;;;;;;;4995392;28;20069;-57
2021/08/19 01:04:06;;;;;;;12.90;5.78;;;;;;;;;;4998722;28;20045;-58
2021/08/19 01:06:33;;;;;;;16.85;6.10;;;;;;;;;;4992770;28;20066;-56
2021/08/19 01:09:00;;;;;;;17.63;6.20;;;;;;;;;;4996105;28;20058;-56
2021/08/19 01:11:26;;;;;;;18.65;6.63;;;;;;;;;;5013329;28;20113;-57
2021/08/19 01:13:53;;;;;;;15.38;7.07;;;;;;;;;;4999902;28;20123;-56
2021/08/19 01:16:20;;;;;;;13.25;6.15;;;;;;;;;;4994926;28;20042;-57
2021/08/19 01:18:47;;;;;;;13.48;6.07;;;;;;;;;;4997626;28;20046;-56
2021/08/19 01:21:14;;;;;;;13.75;6.70;;;;;;;;;;4995933;28;20097;-57
2021/08/19 01:23:42;;;;;;;14.25;6.22;;;;;;;;;;4999153;28;20065;-57
2021/08/19 01:26:10;;;;;;;12.83;6.57;;;;;;;;;;5011230;28;20037;-56
2021/08/19 01:28:38;;;;;;;15.05;6.95;;;;;;;;;;5018163;28;20037;-57
2021/08/19 01:31:05;;;;;;;12.98;5.95;;;;;;;;;;5012761;28;20061;-56
2021/08/19 01:33:32;;;;;;;14.32;6.70;;;;;;;;;;4999207;28;20050;-57
2021/08/19 01:35:59;;;;;;;12.40;6.53;;;;;;;;;;5013415;28;20042;-55
2021/08/19 01:38:29;;;;;;;15.15;6.85;;;;;;;;;;4999864;28;20045;-57
2021/08/19 01:40:56;;;;;;;21.80;6.82;;;;;;;;;;4996864;28;20046;-57
2021/08/19 01:43:24;;;;;;;14.23;6.60;;;;;;;;;;5000074;28;20065;-57
2021/08/19 01:45:52;;;;;;;14.23;6.38;;;;;;;;;;4999533;28;20044;-56
2021/08/19 01:48:19;;;;;;;13.55;6.47;;;;;;;;;;4993028;28;20147;-57
2021/08/19 01:50:45;;;;;;;20.45;7.47;;;;;;;;;;4997352;28;20048;-56
2021/08/19 01:53:12;;;;;;;15.00;6.97;;;;;;;;;;4993172;28;20042;-58
2021/08/19 01:55:40;;;;;;;15.27;6.90;;;;;;;;;;5000481;28;20038;-58
2021/08/19 01:58:07;;;;;;;15.07;6.47;;;;;;;;;;4996201;28;20054;-57
2021/08/19 02:00:33;;;;;;;16.17;6.43;;;;;;;;;;4998584;28;20082;-56
2021/08/19 02:03:01;;;;;;;15.88;6.63;;;;;;;;;;4991556;28;20053;-56
2021/08/19 02:05:28;;;;;;;16.88;6.90;;;;;;;;;;4982773;28;20161;-54
2021/08/19 02:07:54;;;;;;;17.42;7.05;;;;;;;;;;4977706;28;20047;-58
2021/08/19 02:10:21;;;;;;;18.25;7.63;;;;;;;;;;4981738;28;20075;-57
2021/08/19 02:12:47;;;;;;;15.77;7.13;;;;;;;;;;4977308;28;20042;-57
2021/08/19 02:15:14;;;;;;;19.65;8.07;;;;;;;;;;4983818;28;20042;-58
2021/08/19 02:17:40;;;;;;;20.17;7.85;;;;;;;;;;4985353;28;20149;-55
2021/08/19 02:20:09;;;;;;;15.40;7.38;;;;;;;;;;5002972;28;20034;-58
2021/08/19 02:22:36;;;;;;;21.85;8.68;;;;;;;;;;5000665;28;20042;-57
2021/08/19 02:25:02;;;;;;;20.80;8.30;;;;;;;;;;4983739;28;20031;-55
2021/08/19 02:27:29;;;;;;;21.65;9.60;;;;;;;;;;4983536;28;20058;-54
2021/08/19 02:29:56;;;;;;;23.65;9.98;;;;;;;;;;4980630;28;20116;-57
2021/08/19 02:32:23;;;;;;;20.20;10.50;;;;;;;;;;4981625;28;20039;-55
2021/08/19 02:34:51;;;;;;;22.15;9.88;;;;;;;;;;4978588;28;20054;-56
2021/08/19 02:37:19;;;;;;;23.52;10.63;;;;;;;;;;4983094;28;20068;-57
2021/08/19 02:39:45;;;;;;;23.20;11.23;;;;;;;;;;4977245;28;20050;-57
2021/08/19 02:42:12;;;;;;;23.73;11.45;;;;;;;;;;5002225;28;20049;-57
2021/08/19 02:44:39;;;;;;;27.98;11.93;;;;;;;;;;4987954;28;20057;-57
2021/08/19 02:47:06;;;;;;;27.40;13.30;;;;;;;;;;4983043;28;20042;-55
2021/08/19 02:49:32;;;;;;;26.83;13.18;;;;;;;;;;4980891;28;20050;-57
2021/08/19 02:52:00;;;;;;;25.70;12.50;;;;;;;;;;4982236;28;20048;-58
2021/08/19 02:54:28;;;;;;;32.78;12.40;;;;;;;;;;4980785;28;20035;-58
2021/08/19 02:56:54;;;;;;;27.87;12.40;;;;;;;;;;4983968;28;20053;-57
2021/08/19 02:59:20;;;;;;;25.02;13.27;;;;;;;;;;4985509;28;20319;-54
2021/08/19 03:01:47;;;;;;;31.73;12.68;;;;;;;;;;5004342;28;20124;-55
2021/08/19 03:04:14;;;;;;;23.40;11.70;;;;;;;;;;4985592;28;20175;-56
2021/08/19 03:06:40;;;;;;;24.40;11.38;;;;;;;;;;5003459;28;20074;-57
2021/08/19 03:09:07;;;;;;;23.73;11.52;;;;;;;;;;5002809;28;20042;-57
2021/08/19 03:11:35;;;;;;;23.88;10.82;;;;;;;;;;4982029;28;20129;-55
2021/08/19 03:14:02;;;;;;;28.30;12.18;;;;;;;;;;4984716;28;20046;-56
2021/08/19 03:16:28;;;;;;;28.27;11.73;;;;;;;;;;4980593;28;20042;-52
2021/08/19 03:18:55;;;;;;;25.70;12.23;;;;;;;;;;4986129;28;20043;-56
2021/08/19 03:21:21;;;;;;;23.83;11.57;;;;;;;;;;4980471;28;20050;-56
2021/08/19 03:23:49;;;;;;;21.50;10.23;;;;;;;;;;4984832;28;20031;-56
2021/08/19 03:26:15;;;;;;;27.23;12.30;;;;;;;;;;4979491;28;20097;-56
2021/08/19 03:28:43;;;;;;;24.73;12.10;;;;;;;;;;4983091;28;20074;-55
2021/08/19 03:31:10;;;;;;;24.02;10.98;;;;;;;;;;4981344;28;20070;-56
2021/08/19 03:33:37;;;;;;;26.90;10.63;;;;;;;;;;4983494;28;20054;-56
2021/08/19 03:36:04;;;;;;;21.45;10.75;;;;;;;;;;4980619;28;20052;-56
2021/08/19 03:38:30;;;;;;;21.40;10.60;;;;;;;;;;4984091;28;20050;-57
2021/08/19 03:41:21;;;;;;;20.75;9.77;;;;;;;;;;4980559;28;20220;-58
2021/08/19 03:43:49;;;;;;;20.10;10.43;;;;;;;;;;4968144;28;20093;-57
2021/08/19 03:46:16;;;;;;;21.58;10.18;;;;;;;;;;4979949;28;20058;-57
2021/08/19 03:48:44;;;;;;;20.25;10.10;;;;;;;;;;4984529;28;20046;-57
2021/08/19 03:51:10;;;;;;;22.75;10.63;;;;;;;;;;4979494;28;20044;-57
2021/08/19 03:53:37;;;;;;;27.10;10.32;;;;;;;;;;4982694;28;20124;-58
2021/08/19 03:56:04;;;;;;;24.15;10.48;;;;;;;;;;5001355;28;20046;-55
2021/08/19 03:58:31;;;;;;;21.98;10.55;;;;;;;;;;4980283;28;20061;-57
2021/08/19 04:01:02;;;;;;;18.63;10.18;;;;;;;;;;4982469;28;20139;-57
2021/08/19 04:03:29;;;;;;;25.70;10.75;;;;;;;;;;4980905;28;20050;-56
2021/08/19 04:05:56;;;;;;;17.83;9.68;;;;;;;;;;4982279;28;20055;-57
2021/08/19 04:08:23;;;;;;;24.23;10.68;;;;;;;;;;4980286;28;20027;-57
2021/08/19 04:10:49;;;;;;;24.33;10.40;;;;;;;;;;4983396;28;20038;-56
2021/08/19 04:13:17;;;;;;;19.85;10.35;;;;;;;;;;4991120;28;20148;-58
2021/08/19 04:15:43;;;;;;;18.98;9.65;;;;;;;;;;5001333;28;20165;-57
2021/08/19 04:18:13;;;;;;;26.10;10.95;;;;;;;;;;4990920;28;20035;-56
2021/08/19 04:20:41;;;;;;;20.30;10.18;;;;;;;;;;4984571;28;20042;-56
2021/08/19 04:23:07;;;;;;;19.77;10.88;;;;;;;;;;4979301;28;20039;-57
2021/08/19 04:25:34;;;;;;;23.48;11.30;;;;;;;;;;4981467;28;20046;-57
2021/08/19 04:28:00;;;;;;;20.77;10.10;;;;;;;;;;4978657;28;20049;-57
2021/08/19 04:30:27;;;;;;;23.27;10.73;;;;;;;;;;4983685;28;20042;-58
2021/08/19 04:32:53;;;;;;;19.27;10.40;;;;;;;;;;4981674;28;20058;-56
2021/08/19 04:35:22;;;;;;;29.95;10.80;;;;;;;;;;5003306;28;20065;-57
2021/08/19 04:37:49;;;;;;;22.92;10.90;;;;;;;;;;5000397;28;20048;-57
2021/08/19 04:40:18;;;;;;;28.52;11.45;;;;;;;;;;4981182;28;20034;-58
2021/08/19 04:42:44;;;;;;;25.58;11.38;;;;;;;;;;4982605;28;20043;-57
2021/08/19 04:45:11;;;;;;;23.60;11.07;;;;;;;;;;4978969;28;20035;-57
2021/08/19 04:47:37;;;;;;;21.35;10.65;;;;;;;;;;4982363;28;20039;-57
2021/08/19 04:50:06;;;;;;;23.65;10.73;;;;;;;;;;4994967;28;20026;-56
2021/08/19 04:52:33;;;;;;;20.45;10.38;;;;;;;;;;5003104;28;20050;-58
2021/08/19 04:55:02;;;;;;;28.67;11.00;;;;;;;;;;4993320;28;20042;-56
2021/08/19 04:57:28;;;;;;;29.88;11.30;;;;;;;;;;5001061;28;20053;-58
2021/08/19 04:59:55;;;;;;;25.88;10.73;;;;;;;;;;4998449;28;20050;-53
2021/08/19 05:02:21;;;;;;;25.13;11.38;;;;;;;;;;4998121;28;20042;-57
2021/08/19 05:04:47;;;;;;;26.35;11.65;;;;;;;;;;4987785;28;20391;-55
2021/08/19 05:07:14;;;;;;;33.97;15.75;;;;;;;;;;4998180;28;20089;-54
2021/08/19 05:09:42;;;;;;;30.02;13.90;;;;;;;;;;4994907;28;20139;-56
2021/08/19 05:12:09;;;;;;;30.48;13.75;;;;;;;;;;5000271;28;20053;-56
2021/08/19 05:14:35;;;;;;;28.83;11.85;;;;;;;;;;4995596;28;20060;-57
2021/08/19 05:17:02;;;;;;;26.42;12.68;;;;;;;;;;5018930;28;20072;-57
2021/08/19 05:19:28;;;;;;;25.10;11.15;;;;;;;;;;4997083;28;20111;-57
2021/08/19 05:21:55;;;;;;;22.80;10.75;;;;;;;;;;4994643;28;20086;-58
2021/08/19 05:24:21;;;;;;;26.80;11.57;;;;;;;;;;5019405;28;20041;-57
2021/08/19 05:26:49;;;;;;;34.50;11.43;;;;;;;;;;4995137;28;20049;-56
2021/08/19 05:29:15;;;;;;;30.00;11.23;;;;;;;;;;4997093;28;20215;-54
2021/08/19 05:31:42;;;;;;;26.13;11.23;;;;;;;;;;4995139;28;20058;-57
2021/08/19 05:34:09;;;;;;;23.10;11.70;;;;;;;;;;5000794;28;20049;-57
2021/08/19 05:36:35;;;;;;;26.55;10.73;;;;;;;;;;4997311;28;20041;-53
2021/08/19 05:39:03;;;;;;;23.45;11.50;;;;;;;;;;5018725;28;20038;-57
2021/08/19 05:41:32;;;;;;;29.53;12.17;;;;;;;;;;4993956;28;20034;-57
2021/08/19 05:44:02;;;;;;;26.10;12.55;;;;;;;;;;4998416;28;20124;-55
2021/08/19 05:46:28;;;;;;;25.70;10.27;;;;;;;;;;4992566;28;20049;-55
2021/08/19 05:48:55;;;;;;;25.92;10.10;;;;;;;;;;4996905;28;20065;-56
2021/08/19 05:51:21;;;;;;;25.63;10.65;;;;;;;;;;4988216;28;20065;-57
2021/08/19 05:53:48;;;;;;;27.65;9.88;;;;;;;;;;5015794;28;20042;-56
2021/08/19 05:56:14;;;;;;;22.42;9.55;;;;;;;;;;5017579;28;20061;-54
2021/08/19 05:58:41;;;;;;;26.23;9.48;;;;;;;;;;5002986;28;20042;-57
2021/08/19 06:01:10;;;;;;;33.28;9.50;;;;;;;;;;5016463;28;20057;-56
2021/08/19 06:03:36;;;;;;;25.05;9.80;;;;;;;;;;5000420;28;20033;-57
2021/08/19 06:06:03;;;;;;;22.75;10.00;;;;;;;;;;4997282;28;20116;-55
2021/08/19 06:08:29;;;;;;;24.58;12.15;;;;;;;;;;4991661;28;20047;-56
2021/08/19 06:10:56;;;;;;;29.67;12.82;;;;;;;;;;4996113;28;20060;-57
2021/08/19 06:13:22;;;;;;;24.00;9.52;;;;;;;;;;4984502;28;20035;-57
2021/08/19 06:15:49;;;;;;;26.25;8.93;;;;;;;;;;4984869;28;20051;-57
2021/08/19 06:18:16;;;;;;;20.90;8.48;;;;;;;;;;4993830;28;20038;-57
2021/08/19 06:20:43;;;;;;;26.27;8.53;;;;;;;;;;5004056;28;20053;-58
2021/08/19 06:23:12;;;;;;;23.73;8.57;;;;;;;;;;4999137;28;20054;-56
2021/08/19 06:25:39;;;;;;;23.10;7.55;;;;;;;;;;5003089;28;20042;-56
2021/08/19 06:28:06;;;;;;;23.40;8.40;;;;;;;;;;4991069;28;20042;-57
2021/08/19 06:30:33;;;;;;;24.20;7.75;;;;;;;;;;4984140;28;20049;-55
2021/08/19 06:32:59;;;;;;;23.73;8.75;;;;;;;;;;4987704;28;20074;-55
2021/08/19 06:35:27;;;;;;;22.70;8.98;;;;;;;;;;5003727;28;20053;-58
2021/08/19 06:37:54;;;;;;;21.70;8.35;;;;;;;;;;5000401;28;20057;-57
2021/08/19 06:40:20;;;;;;;23.38;8.27;;;;;;;;;;5005695;28;20054;-56
2021/08/19 06:42:46;;;;;;;22.67;8.60;;;;;;;;;;4997073;28;20052;-56
2021/08/19 06:45:13;;;;;;;18.25;8.50;;;;;;;;;;4984040;28;20051;-57
2021/08/19 06:47:40;;;;;;;22.58;9.57;;;;;;;;;;4985576;28;20038;-58
2021/08/19 06:50:07;;;;;;;23.55;9.65;;;;;;;;;;4999415;28;20034;-57
2021/08/19 06:52:38;;;;;;;26.73;10.57;;;;;;;;;;5003460;28;20046;-57
2021/08/19 06:55:04;;;;;;;28.42;9.55;;;;;;;;;;4982590;28;20042;-56
2021/08/19 06:57:31;;;;;;;25.42;9.98;;;;;;;;;;4983986;28;20047;-56
2021/08/19 06:59:57;;;;;;;29.15;10.27;;;;;;;;;;4981789;28;20146;-58
2021/08/19 07:02:24;;;;;;;34.58;12.30;;;;;;;;;;4982008;28;20050;-58
2021/08/19 07:04:50;;;;;;;27.85;11.50;;;;;;;;;;4985886;28;20074;-57
2021/08/19 07:07:17;;;;;;;28.85;11.32;;;;;;;;;;5004903;28;20030;-58
2021/08/19 07:09:44;;;;;;;32.60;11.77;;;;;;;;;;5019366;28;20064;-56
2021/08/19 07:12:11;;;;;;;28.33;12.07;;;;;;;;;;5006367;28;20042;-57
2021/08/19 07:14:42;;;;;;;26.67;11.40;;;;;;;;;;4995842;28;20037;-56
2021/08/19 07:17:08;;;;;;;25.08;10.65;;;;;;;;;;4994924;28;20053;-57
2021/08/19 07:19:35;;;;;;;27.02;10.27;;;;;;;;;;5005424;28;20046;-57
2021/08/19 07:22:02;;;;;;;30.58;12.18;;;;;;;;;;5004246;28;20157;-58
2021/08/19 07:24:28;;;;;;;25.38;10.10;;;;;;;;;;4982053;28;20054;-58
2021/08/19 07:26:56;;;;;;;24.90;11.85;;;;;;;;;;5004169;28;20092;-58
2021/08/19 07:29:23;;;;;;;25.77;11.73;;;;;;;;;;4979165;28;20045;-55
2021/08/19 07:31:52;;;;;;;29.65;10.77;;;;;;;;;;4983001;28;20295;-56
2021/08/19 07:34:19;;;;;;;26.05;10.88;;;;;;;;;;5004497;28;20042;-56
2021/08/19 07:36:45;;;;;;;25.30;11.25;;;;;;;;;;4993998;28;20033;-57
2021/08/19 07:39:12;;;;;;;21.98;9.93;;;;;;;;;;4986426;28;20030;-57
2021/08/19 07:41:38;;;;;;;19.85;9.30;;;;;;;;;;4997641;28;20157;-57
2021/08/19 07:44:06;;;;;;;23.55;10.27;;;;;;;;;;5004410;28;20038;-57
2021/08/19 07:46:34;;;;;;;20.58;9.77;;;;;;;;;;4990395;28;20074;-57
2021/08/19 07:49:02;;;;;;;27.83;9.43;;;;;;;;;;4983560;28;20050;-57
2021/08/19 07:51:30;;;;;;;30.98;9.98;;;;;;;;;;4991393;28;20052;-58
2021/08/19 07:53:57;;;;;;;18.35;9.27;;;;;;;;;;5022211;28;20045;-58
2021/08/19 07:56:23;;;;;;;23.88;9.10;;;;;;;;;;4993824;28;20085;-59
2021/08/19 07:58:49;;;;;;;27.13;9.02;;;;;;;;;;5004013;28;20049;-56
2021/08/19 08:01:17;;;;;;;21.60;8.73;;;;;;;;;;4982104;28;20090;-58
2021/08/19 08:03:44;;;;;;;17.70;8.23;;;;;;;;;;5004096;28;20050;-56
2021/08/19 08:06:11;;;;;;;24.65;10.38;;;;;;;;;;4978620;28;20312;-57
2021/08/19 08:08:38;;;;;;;22.88;9.43;;;;;;;;;;4983678;28;20055;-56
2021/08/19 08:11:04;;;;;;;22.50;8.93;;;;;;;;;;4982727;28;20070;-58
2021/08/19 08:13:31;;;;;;;23.83;9.00;;;;;;;;;;4981229;28;20042;-58
2021/08/19 08:15:57;;;;;;;19.15;8.30;;;;;;;;;;4983835;28;20054;-57
2021/08/19 08:18:25;;;;;;;19.13;8.75;;;;;;;;;;4981536;28;20038;-57
2021/08/19 08:20:53;;;;;;;18.98;8.73;;;;;;;;;;4981612;28;20043;-58
2021/08/19 08:23:20;;;;;;;17.95;7.88;;;;;;;;;;4981285;28;20043;-55
2021/08/19 08:25:47;;;;;;;20.20;8.30;;;;;;;;;;4982941;28;20039;-57
2021/08/19 08:28:15;;;;;;;21.27;9.43;;;;;;;;;;4979458;28;20075;-55
2021/08/19 08:30:44;;;;;;;18.48;8.15;;;;;;;;;;4983114;28;20042;-58
2021/08/19 08:33:11;;;;;;;22.98;8.88;;;;;;;;;;4988432;28;20173;-58
2021/08/19 08:35:38;;;;;;;19.50;8.10;;;;;;;;;;5002885;28;20045;-56
2021/08/19 08:38:06;;;;;;;17.87;7.90;;;;;;;;;;4991144;28;20043;-57
2021/08/19 08:40:34;;;;;;;17.23;7.93;;;;;;;;;;4982714;28;20312;-57
2021/08/19 08:43:01;;;;;;;18.52;7.90;;;;;;;;;;4978798;28;20050;-55
2021/08/19 08:45:28;;;;;;;17.80;7.60;;;;;;;;;;4980868;28;20043;-58
2021/08/19 08:47:55;;;;;;;15.80;7.38;;;;;;;;;;4982052;28;20105;-57
2021/08/19 08:50:21;;;;;;;18.20;7.78;;;;;;;;;;5001335;28;20042;-57
2021/08/19 08:52:51;;;;;;;17.58;7.25;;;;;;;;;;4997236;28;20066;-57
2021/08/19 08:55:17;;;;;;;16.55;7.70;;;;;;;;;;4989610;28;20058;-58
2021/08/19 08:57:44;;;;;;;18.63;7.32;;;;;;;;;;4982789;28;20051;-56
2021/08/19 09:00:11;;;;;;;19.35;7.13;;;;;;;;;;4979048;28;20050;-57
2021/08/19 09:02:37;;;;;;;16.13;6.68;;;;;;;;;;4981041;28;20039;-55
2021/08/19 09:05:14;;;;;;;22.05;8.85;;;;;;;;;;4977076;28;20042;-56
2021/08/19 09:07:50;;;;;;;16.48;7.63;;;;;;;;;;4981723;28;20108;-58
2021/08/19 09:10:18;;;;;;;22.08;7.63;;;;;;;;;;4978394;28;20338;-56
2021/08/19 09:12:45;;;;;;;12.95;6.78;;;;;;;;;;4981941;28;20050;-57
2021/08/19 09:15:12;;;;;;;17.80;6.43;;;;;;;;;;4991647;28;20421;-58
2021/08/19 09:17:43;;;;;;;16.70;7.20;;;;;;;;;;5001737;28;20054;-57
2021/08/19 09:20:11;;;;;;;18.35;7.80;;;;;;;;;;4985149;28;20116;-56
2021/08/19 09:22:50;;;;;;;12.40;6.70;;;;;;;;;;4981902;28;20080;-58
2021/08/19 09:25:24;;;;;;;17.42;7.13;;;;;;;;;;4975837;28;20038;-58
2021/08/19 09:28:07;;;;;;;14.00;6.07;;;;;;;;;;4983651;28;20133;-58
2021/08/19 09:30:35;;;;;;;21.48;7.22;;;;;;;;;;4978049;28;20031;-59
2021/08/19 09:33:05;;;;;;;16.53;7.80;;;;;;;;;;4982751;28;20046;-58
2021/08/19 09:35:32;;;;;;;14.13;6.63;;;;;;;;;;4979324;28;20038;-58
2021/08/19 09:37:58;;;;;;;12.90;6.82;;;;;;;;;;4980821;28;20058;-58
2021/08/19 09:40:26;;;;;;;17.42;6.57;;;;;;;;;;4977906;28;20043;-57
2021/08/19 09:42:53;;;;;;;15.82;6.70;;;;;;;;;;4981745;28;20062;-57
2021/08/19 09:45:20;;;;;;;14.52;7.05;;;;;;;;;;4981176;28;20054;-58
2021/08/19 09:47:47;;;;;;;13.00;5.97;;;;;;;;;;5001771;28;20061;-58
2021/08/19 09:50:14;;;;;;;13.50;6.45;;;;;;;;;;4993624;28;20534;-57
2021/08/19 09:52:42;;;;;;;14.57;7.45;;;;;;;;;;4982495;28;20118;-58
2021/08/19 09:55:20;;;;;;;17.42;6.70;;;;;;;;;;4979264;28;20054;-58
2021/08/19 09:57:48;;;;;;;14.98;6.97;;;;;;;;;;4981569;28;20038;-57
2021/08/19 10:00:22;;;;;;;16.38;7.43;;;;;;;;;;4982955;28;20049;-56
2021/08/19 10:02:49;;;;;;;16.63;7.38;;;;;;;;;;4982187;28;20046;-58
2021/08/19 10:05:16;;;;;;;14.77;7.20;;;;;;;;;;4980372;28;20046;-57
2021/08/19 10:07:43;;;;;;;13.70;6.35;;;;;;;;;;4976457;28;20050;-56
2021/08/19 10:10:10;;;;;;;14.23;7.10;;;;;;;;;;4982093;28;20055;-58
2021/08/19 10:12:37;;;;;;;12.18;6.50;;;;;;;;;;4978294;28;20074;-57
2021/08/19 10:15:06;;;;;;;14.10;6.40;;;;;;;;;;4981650;28;20043;-58
2021/08/19 10:17:32;;;;;;;;;;;;;;;;;;4979686;28;20046;-57
2021/08/19 10:19:58;;;;;;;13.38;6.32;;;;;;;;;;4980013;28;19930;-57
2021/08/19 10:22:26;;;;;;;12.15;6.80;;;;;;;;;;4976531;28;20132;-58
2021/08/19 10:24:53;;;;;;;21.30;6.03;;;;;;;;;;4981960;28;20041;-57
2021/08/19 10:27:21;;;;;;;15.27;7.30;;;;;;;;;;4977924;28;20034;-54
2021/08/19 10:29:50;;;;;;;13.52;5.82;;;;;;;;;;4981105;28;20038;-58
2021/08/19 10:32:29;;;;;;;21.05;7.00;;;;;;;;;;4984995;28;20057;-56
2021/08/19 10:35:00;;;;;;;14.50;6.72;;;;;;;;;;5001002;28;20050;-58
2021/08/19 10:37:45;;;;;;;16.38;6.95;;;;;;;;;;4993712;28;20042;-56
2021/08/19 10:40:31;;;;;;;14.10;7.28;;;;;;;;;;4984714;28;20039;-58
2021/08/19 10:42:59;;;;;;;15.95;6.82;;;;;;;;;;4979393;28;20043;-58
2021/08/19 10:45:42;;;;;;;12.43;6.38;;;;;;;;;;4982625;28;20047;-57
2021/08/19 10:48:22;;;;;;;13.02;7.13;;;;;;;;;;4971083;28;20093;-58
2021/08/19 10:50:49;;;;;;;13.48;6.70;;;;;;;;;;5001795;28;20026;-57
2021/08/19 10:53:16;;;;;;;11.82;6.70;;;;;;;;;;4992834;28;20030;-57
2021/08/19 10:55:45;;;;;;;14.57;6.43;;;;;;;;;;4986077;28;20053;-58
2021/08/19 10:58:22;;;;;;;18.17;7.40;;;;;;;;;;4983133;28;20058;-58
2021/08/19 11:00:50;;;;;;;12.80;6.45;;;;;;;;;;4984816;28;20043;-58
2021/08/19 11:03:35;;;;;;;13.50;6.93;;;;;;;;;;4980327;28;20034;-57
2021/08/19 11:06:04;;;;;;;15.77;7.28;;;;;;;;;;4982078;28;20056;-58
2021/08/19 11:08:30;;;;;;;;;;;;;;;;;;4986425;28;20177;-58
2021/08/19 11:11:03;;;;;;;20.95;7.50;;;;;;;;;;5003918;28;19925;-57
2021/08/19 11:13:31;;;;;;;16.42;8.43;;;;;;;;;;5000171;28;21478;-57
2021/08/19 11:15:58;;;;;;;13.88;7.57;;;;;;;;;;4989098;28;20035;-58
2021/08/19 11:18:25;;;;;;;13.18;7.28;;;;;;;;;;4973643;28;20049;-56
2021/08/19 11:20:52;;;;;;;13.02;7.28;;;;;;;;;;4984429;28;20058;-57
2021/08/19 11:23:26;;;;;;;13.20;6.80;;;;;;;;;;4983457;28;20031;-57
2021/08/19 11:25:52;;;;;;;14.18;7.45;;;;;;;;;;4978670;28;20047;-58
2021/08/19 11:28:20;;;;;;;18.15;7.68;;;;;;;;;;4983372;28;20038;-57
2021/08/19 11:30:47;;;;;;;18.45;8.85;;;;;;;;;;4978640;28;20047;-55
2021/08/19 11:33:14;;;;;;;15.00;7.82;;;;;;;;;;4982630;28;20125;-57
2021/08/19 11:35:41;;;;;;;12.27;6.85;;;;;;;;;;4980186;28;20050;-57
2021/08/19 11:38:15;;;;;;;13.27;7.00;;;;;;;;;;4983390;28;20128;-58
2021/08/19 11:40:44;;;;;;;14.30;6.50;;;;;;;;;;4991729;28;20181;-57
2021/08/19 11:43:20;;;;;;;16.02;6.63;;;;;;;;;;5002557;28;20049;-56
2021/08/19 11:45:47;;;;;;;13.60;6.57;;;;;;;;;;4986728;28;20078;-57
2021/08/19 11:48:13;;;;;;;13.48;6.03;;;;;;;;;;4981284;28;20047;-58
2021/08/19 11:50:41;;;;;;;10.80;6.15;;;;;;;;;;4985025;28;20034;-57
2021/08/19 11:53:08;;;;;;;11.83;6.57;;;;;;;;;;5001624;28;20038;-59
2021/08/19 11:55:36;;;;;;;14.82;6.55;;;;;;;;;;4998426;28;20287;-56
2021/08/19 11:58:18;;;;;;;11.35;6.05;;;;;;;;;;5001623;28;20053;-58
2021/08/19 12:00:58;;;;;;;16.55;6.50;;;;;;;;;;4984354;28;20039;-57
2021/08/19 12:03:25;;;;;;;11.73;5.63;;;;;;;;;;4981784;28;20054;-57
2021/08/19 12:05:59;;;;;;;11.52;5.05;;;;;;;;;;4978439;28;20059;-57
2021/08/19 12:08:26;;;;;;;8.60;4.70;;;;;;;;;;4982677;28;20046;-57
2021/08/19 12:10:54;;;;;;;10.48;4.60;;;;;;;;;;4985705;28;20045;-58
2021/08/19 12:13:23;;;;;;;10.32;4.72;;;;;;;;;;4982393;28;20050;-58
2021/08/19 12:15:49;;;;;;;9.75;4.30;;;;;;;;;;4982902;28;20049;-58
2021/08/19 12:18:20;;;;;;;10.70;5.20;;;;;;;;;;5002778;28;20136;-57
2021/08/19 12:20:47;;;;;;;10.25;5.53;;;;;;;;;;5000685;28;20058;-56
2021/08/19 12:23:15;;;;;;;9.77;4.78;;;;;;;;;;4981243;28;20042;-58
2021/08/19 12:25:41;;;;;;;11.20;5.00;;;;;;;;;;4984158;28;20039;-56
2021/08/19 12:28:09;;;;;;;9.65;4.78;;;;;;;;;;4980240;28;20054;-56
2021/08/19 12:30:37;;;;;;;8.52;4.57;;;;;;;;;;4983346;28;20043;-57
2021/08/19 12:33:04;;;;;;;8.88;4.05;;;;;;;;;;4977633;28;20079;-58
2021/08/19 12:35:31;;;;;;;11.23;4.07;;;;;;;;;;4982095;28;20050;-58
2021/08/19 12:37:58;;;;;;;10.18;4.45;;;;;;;;;;4979533;28;20046;-58
2021/08/19 12:40:28;;;;;;;11.77;4.65;;;;;;;;;;4983025;28;20034;-56
2021/08/19 12:43:03;;;;;;;10.38;4.03;;;;;;;;;;4978545;28;20066;-57
2021/08/19 12:45:31;;;;;;;7.88;3.97;;;;;;;;;;4982098;28;20035;-58
2021/08/19 12:48:03;;;;;;;7.43;3.97;;;;;;;;;;4981108;28;20074;-57
2021/08/19 12:50:29;;;;;;;7.85;3.85;;;;;;;;;;4982255;28;20061;-58
2021/08/19 12:53:04;;;;;;;10.07;3.92;;;;;;;;;;4981420;28;20038;-58
2021/08/19 12:55:31;;;;;;;7.30;4.15;;;;;;;;;;4981231;28;20047;-58
2021/08/19 12:57:59;;;;;;;12.40;4.05;;;;;;;;;;4979505;28;20047;-58
2021/08/19 13:00:26;;;;;;;9.40;3.67;;;;;;;;;;4981756;28;20031;-56
2021/08/19 13:02:53;;;;;;;12.38;3.75;;;;;;;;;;4978829;28;20083;-58
2021/08/19 13:05:22;;;;;;;8.98;4.30;;;;;;;;;;4982681;28;20129;-57
2021/08/19 13:07:48;;;;;;;;;;;;;;;;;;4982465;28;20031;-56
2021/08/19 13:10:16;;;;;;;16.30;4.75;;;;;;;;;;4995010;28;20008;-58
2021/08/19 13:12:43;;;;;;;9.55;4.32;;;;;;;;;;4982277;28;20046;-58
2021/08/19 13:15:13;;;;;;;11.15;5.13;;;;;;;;;;4995704;28;20047;-58
2021/08/19 13:17:39;;;;;;;11.80;4.50;;;;;;;;;;5001314;28;20042;-56
2021/08/19 13:20:07;;;;;;;8.50;4.40;;;;;;;;;;4980518;28;20067;-59
2021/08/19 13:22:35;;;;;;;11.00;4.93;;;;;;;;;;4980934;28;20050;-57
2021/08/19 13:25:01;;;;;;;10.73;4.88;;;;;;;;;;4991440;28;20056;-59
2021/08/19 13:27:28;;;;;;;10.15;4.53;;;;;;;;;;5000749;28;20046;-58
2021/08/19 13:29:55;;;;;;;13.80;4.50;;;;;;;;;;4984104;28;20043;-58
2021/08/19 13:32:22;;;;;;;11.85;5.20;;;;;;;;;;4980683;28;20057;-62
2021/08/19 13:34:48;;;;;;;11.35;4.93;;;;;;;;;;4981017;28;20043;-58
2021/08/19 13:37:15;;;;;;;15.88;5.00;;;;;;;;;;4980855;28;20047;-57
2021/08/19 13:39:43;;;;;;;8.38;4.63;;;;;;;;;;4985613;28;20065;-58
2021/08/19 13:42:10;;;;;;;11.65;5.00;;;;;;;;;;5002887;28;20038;-58
2021/08/19 13:44:36;;;;;;;12.90;5.78;;;;;;;;;;4993760;28;20094;-59
2021/08/19 13:47:04;;;;;;;13.15;5.90;;;;;;;;;;4982972;28;20034;-59
2021/08/19 13:49:31;;;;;;;14.70;5.80;;;;;;;;;;4982005;28;20079;-54
2021/08/19 13:51:57;;;;;;;12.23;5.88;;;;;;;;;;5002873;28;20283;-57
2021/08/19 13:54:24;;;;;;;13.90;5.80;;;;;;;;;;4993937;28;20300;-58
2021/08/19 13:56:53;;;;;;;10.35;4.85;;;;;;;;;;4998827;28;20060;-57
2021/08/19 13:59:21;;;;;;;12.05;5.85;;;;;;;;;;5001702;28;20042;-58
2021/08/19 14:01:48;;;;;;;10.48;5.20;;;;;;;;;;4979262;28;20058;-58
2021/08/19 14:04:14;;;;;;;13.52;5.97;;;;;;;;;;4981320;28;20141;-59
2021/08/19 14:06:41;;;;;;;13.48;6.43;;;;;;;;;;4977779;28;20190;-58
2021/08/19 14:09:08;;;;;;;15.40;6.05;;;;;;;;;;4983809;28;20039;-59
2021/08/19 14:11:34;;;;;;;15.48;6.65;;;;;;;;;;4983578;28;20046;-59
2021/08/19 14:14:04;;;;;;;11.70;6.00;;;;;;;;;;4984217;28;20027;-58
2021/08/19 14:16:31;;;;;;;17.52;5.93;;;;;;;;;;4981855;28;20124;-58
2021/08/19 14:18:57;;;;;;;13.77;6.38;;;;;;;;;;4984210;28;20042;-59
2021/08/19 14:21:24;;;;;;;16.40;6.95;;;;;;;;;;4990548;28;20096;-56
2021/08/19 14:23:50;;;;;;;12.00;5.80;;;;;;;;;;5004917;28;20038;-58
2021/08/19 14:26:17;;;;;;;10.60;5.85;;;;;;;;;;4994245;28;20038;-58
2021/08/19 14:28:43;;;;;;;12.70;5.95;;;;;;;;;;4984260;28;20051;-58
2021/08/19 14:31:13;;;;;;;10.95;5.38;;;;;;;;;;4980604;28;20047;-59